sensor_id;sensor_type;location;lat;lon;timestamp;P1;durP1;ratioP1;P2;durP2;ratioP2
15858;SDS011;8029;52.202;7.308;2022-12-10T00:01:51;13.43;;;11.93;;
15858;SDS011;8029;52.202;7.308;2022-12-10T00:04:19;14.97;;;12.23;;
15858;SDS011;8029;52.202;7.308;2022-12-10T00:06:46;15.73;;;12.20;;
15858;SDS011;8029;52.202;7.308;2022-12-10T00:09:17;15.33;;;13.00;;
15858;SDS011;8029;52.202;7.308;2022-12-10T00:11:44;17.03;;;12.80;;
15858;SDS011;8029;52.202;7.308;2022-12-10T00:14:10;16.83;;;12.07;;
15858;SDS011;8029;52.202;7.308;2022-12-10T00:16:37;14.37;;;12.33;;
15858;SDS011;8029;52.202;7.308;2022-12-10T00:19:03;19.90;;;13.13;;
15858;SDS011;8029;52.202;7.308;2022-12-10T00:21:30;19.73;;;13.93;;
15858;SDS011;8029;52.202;7.308;2022-12-10T00:23:56;14.63;;;11.90;;
15858;SDS011;8029;52.202;7.308;2022-12-10T00:26:24;19.80;;;15.63;;
15858;SDS011;8029;52.202;7.308;2022-12-10T00:28:50;16.43;;;13.43;;
15858;SDS011;8029;52.202;7.308;2022-12-10T00:31:20;17.93;;;13.50;;
15858;SDS011;8029;52.202;7.308;2022-12-10T00:33:47;14.73;;;12.63;;
15858;SDS011;8029;52.202;7.308;2022-12-10T00:36:17;20.77;;;15.20;;
15858;SDS011;8029;52.202;7.308;2022-12-10T00:38:43;14.47;;;11.87;;
15858;SDS011;8029;52.202;7.308;2022-12-10T00:41:10;15.17;;;12.67;;
15858;SDS011;8029;52.202;7.308;2022-12-10T00:43:36;17.00;;;13.37;;
15858;SDS011;8029;52.202;7.308;2022-12-10T00:46:02;17.50;;;12.70;;
15858;SDS011;8029;52.202;7.308;2022-12-10T00:48:28;17.07;;;13.33;;
15858;SDS011;8029;52.202;7.308;2022-12-10T00:50:55;18.30;;;13.13;;
15858;SDS011;8029;52.202;7.308;2022-12-10T00:53:21;25.60;;;16.27;;
15858;SDS011;8029;52.202;7.308;2022-12-10T00:55:47;16.30;;;12.67;;
15858;SDS011;8029;52.202;7.308;2022-12-10T00:58:13;14.87;;;12.90;;
15858;SDS011;8029;52.202;7.308;2022-12-10T01:00:39;23.57;;;15.07;;
15858;SDS011;8029;52.202;7.308;2022-12-10T01:03:06;15.27;;;12.83;;
15858;SDS011;8029;52.202;7.308;2022-12-10T01:05:32;14.80;;;13.07;;
15858;SDS011;8029;52.202;7.308;2022-12-10T01:07:58;20.97;;;13.50;;
15858;SDS011;8029;52.202;7.308;2022-12-10T01:10:24;13.50;;;11.27;;
15858;SDS011;8029;52.202;7.308;2022-12-10T01:12:49;14.60;;;12.23;;
15858;SDS011;8029;52.202;7.308;2022-12-10T01:15:15;16.53;;;13.43;;
15858;SDS011;8029;52.202;7.308;2022-12-10T01:17:41;17.97;;;12.97;;
15858;SDS011;8029;52.202;7.308;2022-12-10T01:20:07;16.13;;;12.90;;
15858;SDS011;8029;52.202;7.308;2022-12-10T01:22:33;13.03;;;11.27;;
15858;SDS011;8029;52.202;7.308;2022-12-10T01:24:59;16.83;;;12.27;;
15858;SDS011;8029;52.202;7.308;2022-12-10T01:27:26;13.17;;;11.40;;
15858;SDS011;8029;52.202;7.308;2022-12-10T01:29:52;15.17;;;12.30;;
15858;SDS011;8029;52.202;7.308;2022-12-10T01:32:18;16.00;;;12.20;;
15858;SDS011;8029;52.202;7.308;2022-12-10T01:34:44;13.77;;;12.10;;
15858;SDS011;8029;52.202;7.308;2022-12-10T01:37:09;16.47;;;12.47;;
15858;SDS011;8029;52.202;7.308;2022-12-10T01:39:36;12.23;;;10.93;;
15858;SDS011;8029;52.202;7.308;2022-12-10T01:42:02;16.77;;;12.03;;
15858;SDS011;8029;52.202;7.308;2022-12-10T01:46:55;15.17;;;11.37;;
15858;SDS011;8029;52.202;7.308;2022-12-10T01:49:22;15.67;;;11.90;;
15858;SDS011;8029;52.202;7.308;2022-12-10T01:51:50;16.50;;;11.57;;
15858;SDS011;8029;52.202;7.308;2022-12-10T01:54:19;12.00;;;10.73;;
15858;SDS011;8029;52.202;7.308;2022-12-10T01:56:46;12.87;;;10.27;;
15858;SDS011;8029;52.202;7.308;2022-12-10T01:59:14;16.47;;;11.43;;
15858;SDS011;8029;52.202;7.308;2022-12-10T02:09:27;12.83;;;10.40;;
15858;SDS011;8029;52.202;7.308;2022-12-10T02:14:29;13.57;;;11.80;;
15858;SDS011;8029;52.202;7.308;2022-12-10T02:16:59;12.43;;;11.17;;
15858;SDS011;8029;52.202;7.308;2022-12-10T02:19:47;16.83;;;12.73;;
15858;SDS011;8029;52.202;7.308;2022-12-10T02:22:15;16.47;;;13.00;;
15858;SDS011;8029;52.202;7.308;2022-12-10T02:24:42;15.93;;;11.80;;
15858;SDS011;8029;52.202;7.308;2022-12-10T02:29:55;16.10;;;10.90;;
15858;SDS011;8029;52.202;7.308;2022-12-10T02:32:24;14.30;;;11.60;;
15858;SDS011;8029;52.202;7.308;2022-12-10T02:34:52;11.23;;;9.70;;
15858;SDS011;8029;52.202;7.308;2022-12-10T02:37:29;14.93;;;12.27;;
15858;SDS011;8029;52.202;7.308;2022-12-10T02:39:56;17.47;;;12.27;;
15858;SDS011;8029;52.202;7.308;2022-12-10T02:42:23;15.43;;;12.40;;
15858;SDS011;8029;52.202;7.308;2022-12-10T02:44:50;18.57;;;12.80;;
15858;SDS011;8029;52.202;7.308;2022-12-10T02:47:17;16.20;;;11.00;;
15858;SDS011;8029;52.202;7.308;2022-12-10T02:49:44;16.10;;;9.70;;
15858;SDS011;8029;52.202;7.308;2022-12-10T02:52:12;14.30;;;11.07;;
15858;SDS011;8029;52.202;7.308;2022-12-10T02:54:40;14.17;;;10.77;;
15858;SDS011;8029;52.202;7.308;2022-12-10T02:57:14;16.23;;;12.00;;
15858;SDS011;8029;52.202;7.308;2022-12-10T02:59:51;11.87;;;9.63;;
15858;SDS011;8029;52.202;7.308;2022-12-10T03:02:24;18.37;;;11.90;;
15858;SDS011;8029;52.202;7.308;2022-12-10T03:05:57;14.63;;;11.03;;
15858;SDS011;8029;52.202;7.308;2022-12-10T03:10:22;12.63;;;10.97;;
15858;SDS011;8029;52.202;7.308;2022-12-10T03:12:52;15.73;;;12.17;;
15858;SDS011;8029;52.202;7.308;2022-12-10T03:15:20;17.60;;;11.77;;
15858;SDS011;8029;52.202;7.308;2022-12-10T03:17:46;10.57;;;9.53;;
15858;SDS011;8029;52.202;7.308;2022-12-10T03:20:13;12.47;;;10.47;;
15858;SDS011;8029;52.202;7.308;2022-12-10T03:22:42;17.87;;;11.07;;
15858;SDS011;8029;52.202;7.308;2022-12-10T03:25:09;21.47;;;11.37;;
15858;SDS011;8029;52.202;7.308;2022-12-10T03:27:36;16.67;;;12.03;;
15858;SDS011;8029;52.202;7.308;2022-12-10T03:30:04;13.20;;;9.57;;
15858;SDS011;8029;52.202;7.308;2022-12-10T03:32:30;16.70;;;12.57;;
15858;SDS011;8029;52.202;7.308;2022-12-10T03:34:57;12.30;;;10.43;;
15858;SDS011;8029;52.202;7.308;2022-12-10T03:37:24;11.97;;;10.40;;
15858;SDS011;8029;52.202;7.308;2022-12-10T03:39:51;14.17;;;11.03;;
15858;SDS011;8029;52.202;7.308;2022-12-10T03:42:17;11.20;;;9.07;;
15858;SDS011;8029;52.202;7.308;2022-12-10T03:44:43;17.67;;;13.00;;
15858;SDS011;8029;52.202;7.308;2022-12-10T03:47:10;16.60;;;10.77;;
15858;SDS011;8029;52.202;7.308;2022-12-10T03:49:37;11.43;;;9.73;;
15858;SDS011;8029;52.202;7.308;2022-12-10T03:52:04;11.57;;;9.43;;
15858;SDS011;8029;52.202;7.308;2022-12-10T03:54:30;10.87;;;9.73;;
15858;SDS011;8029;52.202;7.308;2022-12-10T03:56:56;11.37;;;9.67;;
15858;SDS011;8029;52.202;7.308;2022-12-10T03:59:22;12.80;;;10.23;;
15858;SDS011;8029;52.202;7.308;2022-12-10T04:01:48;12.20;;;10.50;;
15858;SDS011;8029;52.202;7.308;2022-12-10T04:04:14;15.53;;;11.90;;
15858;SDS011;8029;52.202;7.308;2022-12-10T04:06:41;12.70;;;10.10;;
15858;SDS011;8029;52.202;7.308;2022-12-10T04:09:09;13.33;;;10.97;;
15858;SDS011;8029;52.202;7.308;2022-12-10T04:11:35;15.70;;;10.40;;
15858;SDS011;8029;52.202;7.308;2022-12-10T04:14:01;12.03;;;10.43;;
15858;SDS011;8029;52.202;7.308;2022-12-10T04:16:46;10.97;;;9.67;;
15858;SDS011;8029;52.202;7.308;2022-12-10T04:19:12;14.97;;;12.13;;
15858;SDS011;8029;52.202;7.308;2022-12-10T04:21:39;12.17;;;10.87;;
15858;SDS011;8029;52.202;7.308;2022-12-10T04:24:26;13.70;;;11.27;;
15858;SDS011;8029;52.202;7.308;2022-12-10T04:27:12;26.90;;;11.33;;
15858;SDS011;8029;52.202;7.308;2022-12-10T04:29:38;11.37;;;10.17;;
15858;SDS011;8029;52.202;7.308;2022-12-10T04:32:04;14.53;;;11.63;;
15858;SDS011;8029;52.202;7.308;2022-12-10T04:34:30;17.10;;;11.80;;
15858;SDS011;8029;52.202;7.308;2022-12-10T04:36:57;21.90;;;12.27;;
15858;SDS011;8029;52.202;7.308;2022-12-10T04:39:23;16.83;;;12.97;;
15858;SDS011;8029;52.202;7.308;2022-12-10T04:41:49;13.73;;;11.97;;
15858;SDS011;8029;52.202;7.308;2022-12-10T04:44:15;16.63;;;10.73;;
15858;SDS011;8029;52.202;7.308;2022-12-10T04:46:41;11.57;;;10.37;;
15858;SDS011;8029;52.202;7.308;2022-12-10T04:49:07;16.57;;;11.57;;
15858;SDS011;8029;52.202;7.308;2022-12-10T04:51:33;11.97;;;10.10;;
15858;SDS011;8029;52.202;7.308;2022-12-10T04:54:00;14.40;;;10.87;;
15858;SDS011;8029;52.202;7.308;2022-12-10T04:56:26;18.33;;;12.30;;
15858;SDS011;8029;52.202;7.308;2022-12-10T04:58:52;11.73;;;10.50;;
15858;SDS011;8029;52.202;7.308;2022-12-10T05:01:20;15.83;;;12.47;;
15858;SDS011;8029;52.202;7.308;2022-12-10T05:03:46;12.73;;;9.83;;
15858;SDS011;8029;52.202;7.308;2022-12-10T05:06:13;14.50;;;10.40;;
15858;SDS011;8029;52.202;7.308;2022-12-10T05:08:39;11.53;;;10.27;;
15858;SDS011;8029;52.202;7.308;2022-12-10T05:11:13;18.23;;;12.90;;
15858;SDS011;8029;52.202;7.308;2022-12-10T05:13:39;14.50;;;11.50;;
15858;SDS011;8029;52.202;7.308;2022-12-10T05:16:06;17.07;;;11.67;;
15858;SDS011;8029;52.202;7.308;2022-12-10T05:18:33;20.30;;;13.17;;
15858;SDS011;8029;52.202;7.308;2022-12-10T05:20:59;19.77;;;13.90;;
15858;SDS011;8029;52.202;7.308;2022-12-10T05:23:25;18.30;;;12.57;;
15858;SDS011;8029;52.202;7.308;2022-12-10T05:26:02;19.33;;;11.90;;
15858;SDS011;8029;52.202;7.308;2022-12-10T05:28:32;11.50;;;9.47;;
15858;SDS011;8029;52.202;7.308;2022-12-10T05:30:58;15.00;;;11.57;;
15858;SDS011;8029;52.202;7.308;2022-12-10T05:33:24;12.27;;;11.00;;
15858;SDS011;8029;52.202;7.308;2022-12-10T05:35:57;21.80;;;12.73;;
15858;SDS011;8029;52.202;7.308;2022-12-10T05:38:23;18.33;;;11.97;;
15858;SDS011;8029;52.202;7.308;2022-12-10T05:40:50;13.60;;;10.40;;
15858;SDS011;8029;52.202;7.308;2022-12-10T05:43:16;13.20;;;10.67;;
15858;SDS011;8029;52.202;7.308;2022-12-10T05:45:42;17.20;;;12.40;;
15858;SDS011;8029;52.202;7.308;2022-12-10T05:48:09;13.13;;;11.33;;
15858;SDS011;8029;52.202;7.308;2022-12-10T05:50:35;15.33;;;13.07;;
15858;SDS011;8029;52.202;7.308;2022-12-10T05:53:02;14.90;;;11.77;;
15858;SDS011;8029;52.202;7.308;2022-12-10T05:55:28;11.17;;;9.40;;
15858;SDS011;8029;52.202;7.308;2022-12-10T05:57:54;15.77;;;11.97;;
15858;SDS011;8029;52.202;7.308;2022-12-10T06:00:20;12.77;;;8.83;;
15858;SDS011;8029;52.202;7.308;2022-12-10T06:02:48;15.03;;;11.80;;
15858;SDS011;8029;52.202;7.308;2022-12-10T06:05:14;15.30;;;11.40;;
15858;SDS011;8029;52.202;7.308;2022-12-10T06:07:40;13.97;;;10.93;;
15858;SDS011;8029;52.202;7.308;2022-12-10T06:10:06;18.70;;;12.03;;
15858;SDS011;8029;52.202;7.308;2022-12-10T06:12:32;16.57;;;10.83;;
15858;SDS011;8029;52.202;7.308;2022-12-10T06:14:58;14.73;;;11.07;;
15858;SDS011;8029;52.202;7.308;2022-12-10T06:17:24;14.13;;;10.97;;
15858;SDS011;8029;52.202;7.308;2022-12-10T06:19:50;19.93;;;11.77;;
15858;SDS011;8029;52.202;7.308;2022-12-10T06:22:16;10.57;;;9.47;;
15858;SDS011;8029;52.202;7.308;2022-12-10T06:24:42;13.10;;;10.23;;
15858;SDS011;8029;52.202;7.308;2022-12-10T06:27:08;11.40;;;10.10;;
15858;SDS011;8029;52.202;7.308;2022-12-10T06:29:34;11.73;;;9.60;;
15858;SDS011;8029;52.202;7.308;2022-12-10T06:32:00;13.20;;;11.30;;
15858;SDS011;8029;52.202;7.308;2022-12-10T06:34:26;14.80;;;11.07;;
15858;SDS011;8029;52.202;7.308;2022-12-10T06:36:52;16.13;;;12.10;;
15858;SDS011;8029;52.202;7.308;2022-12-10T06:39:18;18.43;;;16.43;;
15858;SDS011;8029;52.202;7.308;2022-12-10T06:41:44;18.77;;;12.97;;
15858;SDS011;8029;52.202;7.308;2022-12-10T06:44:11;24.20;;;13.30;;
15858;SDS011;8029;52.202;7.308;2022-12-10T06:46:37;17.53;;;12.90;;
15858;SDS011;8029;52.202;7.308;2022-12-10T06:49:03;15.00;;;12.20;;
15858;SDS011;8029;52.202;7.308;2022-12-10T06:51:29;18.87;;;13.73;;
15858;SDS011;8029;52.202;7.308;2022-12-10T06:53:55;17.27;;;13.63;;
15858;SDS011;8029;52.202;7.308;2022-12-10T06:56:21;13.67;;;12.23;;
15858;SDS011;8029;52.202;7.308;2022-12-10T06:58:47;17.97;;;13.80;;
15858;SDS011;8029;52.202;7.308;2022-12-10T07:01:15;11.63;;;10.33;;
15858;SDS011;8029;52.202;7.308;2022-12-10T07:03:41;16.20;;;11.83;;
15858;SDS011;8029;52.202;7.308;2022-12-10T07:06:07;12.40;;;11.10;;
15858;SDS011;8029;52.202;7.308;2022-12-10T07:08:35;20.50;;;12.83;;
15858;SDS011;8029;52.202;7.308;2022-12-10T07:11:09;14.57;;;11.40;;
15858;SDS011;8029;52.202;7.308;2022-12-10T07:13:36;15.53;;;11.53;;
15858;SDS011;8029;52.202;7.308;2022-12-10T07:16:03;13.40;;;11.67;;
15858;SDS011;8029;52.202;7.308;2022-12-10T07:18:29;14.80;;;11.63;;
15858;SDS011;8029;52.202;7.308;2022-12-10T07:20:55;16.80;;;13.13;;
15858;SDS011;8029;52.202;7.308;2022-12-10T07:23:21;23.00;;;13.87;;
15858;SDS011;8029;52.202;7.308;2022-12-10T07:25:47;16.37;;;10.70;;
15858;SDS011;8029;52.202;7.308;2022-12-10T07:28:13;13.53;;;12.00;;
15858;SDS011;8029;52.202;7.308;2022-12-10T07:30:39;14.83;;;11.33;;
15858;SDS011;8029;52.202;7.308;2022-12-10T07:33:05;15.70;;;11.30;;
15858;SDS011;8029;52.202;7.308;2022-12-10T07:35:31;15.70;;;12.50;;
15858;SDS011;8029;52.202;7.308;2022-12-10T07:37:57;12.63;;;10.67;;
15858;SDS011;8029;52.202;7.308;2022-12-10T07:40:24;14.27;;;11.20;;
15858;SDS011;8029;52.202;7.308;2022-12-10T07:42:50;17.67;;;12.50;;
15858;SDS011;8029;52.202;7.308;2022-12-10T07:45:16;12.33;;;10.33;;
15858;SDS011;8029;52.202;7.308;2022-12-10T07:47:42;11.33;;;9.97;;
15858;SDS011;8029;52.202;7.308;2022-12-10T07:50:08;12.27;;;10.97;;
15858;SDS011;8029;52.202;7.308;2022-12-10T07:52:34;16.60;;;11.80;;
15858;SDS011;8029;52.202;7.308;2022-12-10T07:55:00;10.97;;;9.87;;
15858;SDS011;8029;52.202;7.308;2022-12-10T07:57:27;21.93;;;13.60;;
15858;SDS011;8029;52.202;7.308;2022-12-10T07:59:54;15.40;;;12.00;;
15858;SDS011;8029;52.202;7.308;2022-12-10T08:02:20;16.57;;;12.83;;
15858;SDS011;8029;52.202;7.308;2022-12-10T08:04:46;12.87;;;10.80;;
15858;SDS011;8029;52.202;7.308;2022-12-10T08:07:11;20.83;;;16.03;;
15858;SDS011;8029;52.202;7.308;2022-12-10T08:09:37;15.67;;;12.93;;
15858;SDS011;8029;52.202;7.308;2022-12-10T08:12:03;15.10;;;12.77;;
15858;SDS011;8029;52.202;7.308;2022-12-10T08:14:29;16.07;;;13.53;;
15858;SDS011;8029;52.202;7.308;2022-12-10T08:16:55;16.17;;;13.17;;
15858;SDS011;8029;52.202;7.308;2022-12-10T08:19:21;14.33;;;12.80;;
15858;SDS011;8029;52.202;7.308;2022-12-10T08:21:47;13.10;;;11.70;;
15858;SDS011;8029;52.202;7.308;2022-12-10T08:24:13;20.47;;;12.93;;
15858;SDS011;8029;52.202;7.308;2022-12-10T08:26:39;20.63;;;13.07;;
15858;SDS011;8029;52.202;7.308;2022-12-10T08:29:05;16.90;;;13.43;;
15858;SDS011;8029;52.202;7.308;2022-12-10T08:31:31;12.77;;;11.47;;
15858;SDS011;8029;52.202;7.308;2022-12-10T08:33:57;17.70;;;13.60;;
15858;SDS011;8029;52.202;7.308;2022-12-10T08:36:23;15.97;;;12.77;;
15858;SDS011;8029;52.202;7.308;2022-12-10T08:38:49;17.70;;;13.90;;
15858;SDS011;8029;52.202;7.308;2022-12-10T08:41:16;16.60;;;14.13;;
15858;SDS011;8029;52.202;7.308;2022-12-10T08:43:43;21.43;;;15.07;;
15858;SDS011;8029;52.202;7.308;2022-12-10T08:46:09;20.63;;;16.27;;
15858;SDS011;8029;52.202;7.308;2022-12-10T08:48:36;17.83;;;14.70;;
15858;SDS011;8029;52.202;7.308;2022-12-10T08:51:02;24.73;;;16.50;;
15858;SDS011;8029;52.202;7.308;2022-12-10T08:53:28;18.97;;;15.90;;
15858;SDS011;8029;52.202;7.308;2022-12-10T08:55:54;18.13;;;13.10;;
15858;SDS011;8029;52.202;7.308;2022-12-10T08:58:20;17.43;;;13.23;;
15858;SDS011;8029;52.202;7.308;2022-12-10T09:00:47;21.03;;;16.67;;
15858;SDS011;8029;52.202;7.308;2022-12-10T09:03:13;19.57;;;15.70;;
15858;SDS011;8029;52.202;7.308;2022-12-10T09:05:39;16.10;;;14.20;;
15858;SDS011;8029;52.202;7.308;2022-12-10T09:08:06;19.57;;;16.90;;
15858;SDS011;8029;52.202;7.308;2022-12-10T09:10:32;17.13;;;15.20;;
15858;SDS011;8029;52.202;7.308;2022-12-10T09:13:00;17.40;;;13.40;;
15858;SDS011;8029;52.202;7.308;2022-12-10T09:15:26;18.80;;;15.70;;
15858;SDS011;8029;52.202;7.308;2022-12-10T09:17:52;15.80;;;13.83;;
15858;SDS011;8029;52.202;7.308;2022-12-10T09:20:18;22.37;;;15.17;;
15858;SDS011;8029;52.202;7.308;2022-12-10T09:22:44;19.17;;;16.33;;
15858;SDS011;8029;52.202;7.308;2022-12-10T09:25:10;23.50;;;16.37;;
15858;SDS011;8029;52.202;7.308;2022-12-10T09:27:36;19.63;;;16.40;;
15858;SDS011;8029;52.202;7.308;2022-12-10T09:30:03;20.93;;;16.63;;
15858;SDS011;8029;52.202;7.308;2022-12-10T09:32:29;26.10;;;16.47;;
15858;SDS011;8029;52.202;7.308;2022-12-10T09:34:55;18.50;;;15.33;;
15858;SDS011;8029;52.202;7.308;2022-12-10T09:37:21;25.03;;;17.53;;
15858;SDS011;8029;52.202;7.308;2022-12-10T09:39:47;21.13;;;16.10;;
15858;SDS011;8029;52.202;7.308;2022-12-10T09:47:35;21.37;;;18.23;;
15858;SDS011;8029;52.202;7.308;2022-12-10T09:52:33;25.17;;;18.23;;
15858;SDS011;8029;52.202;7.308;2022-12-10T09:55:02;19.97;;;15.50;;
15858;SDS011;8029;52.202;7.308;2022-12-10T09:57:31;28.80;;;19.73;;
15858;SDS011;8029;52.202;7.308;2022-12-10T10:00:03;21.00;;;17.13;;
15858;SDS011;8029;52.202;7.308;2022-12-10T10:02:32;23.37;;;18.83;;
15858;SDS011;8029;52.202;7.308;2022-12-10T10:07:34;23.80;;;19.63;;
15858;SDS011;8029;52.202;7.308;2022-12-10T10:10:02;23.83;;;19.43;;
15858;SDS011;8029;52.202;7.308;2022-12-10T10:12:29;28.10;;;19.87;;
15858;SDS011;8029;52.202;7.308;2022-12-10T10:14:56;23.17;;;17.67;;
15858;SDS011;8029;52.202;7.308;2022-12-10T10:17:33;21.60;;;17.80;;
15858;SDS011;8029;52.202;7.308;2022-12-10T10:20:01;23.77;;;18.13;;
15858;SDS011;8029;52.202;7.308;2022-12-10T10:22:27;25.23;;;19.90;;
15858;SDS011;8029;52.202;7.308;2022-12-10T10:24:53;20.80;;;17.80;;
15858;SDS011;8029;52.202;7.308;2022-12-10T10:27:20;30.03;;;20.63;;
15858;SDS011;8029;52.202;7.308;2022-12-10T10:29:48;26.27;;;20.43;;
15858;SDS011;8029;52.202;7.308;2022-12-10T10:34:40;26.30;;;18.93;;
15858;SDS011;8029;52.202;7.308;2022-12-10T10:37:06;25.47;;;20.47;;
15858;SDS011;8029;52.202;7.308;2022-12-10T10:39:32;23.00;;;19.43;;
15858;SDS011;8029;52.202;7.308;2022-12-10T10:42:08;31.87;;;22.70;;
15858;SDS011;8029;52.202;7.308;2022-12-10T10:44:35;20.37;;;17.63;;
15858;SDS011;8029;52.202;7.308;2022-12-10T10:47:02;28.60;;;21.50;;
15858;SDS011;8029;52.202;7.308;2022-12-10T10:49:29;23.13;;;19.20;;
15858;SDS011;8029;52.202;7.308;2022-12-10T10:52:15;36.27;;;21.30;;
15858;SDS011;8029;52.202;7.308;2022-12-10T10:54:42;24.97;;;19.83;;
15858;SDS011;8029;52.202;7.308;2022-12-10T10:57:23;27.97;;;19.70;;
15858;SDS011;8029;52.202;7.308;2022-12-10T10:59:50;31.43;;;22.17;;
15858;SDS011;8029;52.202;7.308;2022-12-10T11:02:24;26.80;;;20.57;;
15858;SDS011;8029;52.202;7.308;2022-12-10T11:04:53;43.07;;;19.60;;
15858;SDS011;8029;52.202;7.308;2022-12-10T11:07:24;26.10;;;20.43;;
15858;SDS011;8029;52.202;7.308;2022-12-10T11:09:52;32.13;;;23.17;;
15858;SDS011;8029;52.202;7.308;2022-12-10T11:12:23;25.17;;;20.73;;
15858;SDS011;8029;52.202;7.308;2022-12-10T11:14:53;45.40;;;21.63;;
15858;SDS011;8029;52.202;7.308;2022-12-10T11:17:20;33.70;;;20.03;;
15858;SDS011;8029;52.202;7.308;2022-12-10T11:19:54;26.60;;;17.27;;
15858;SDS011;8029;52.202;7.308;2022-12-10T11:22:22;18.13;;;14.83;;
15858;SDS011;8029;52.202;7.308;2022-12-10T11:24:48;28.87;;;18.73;;
15858;SDS011;8029;52.202;7.308;2022-12-10T11:27:21;23.20;;;18.30;;
15858;SDS011;8029;52.202;7.308;2022-12-10T11:30:02;25.60;;;19.53;;
15858;SDS011;8029;52.202;7.308;2022-12-10T11:45:24;33.90;;;22.23;;
15858;SDS011;8029;52.202;7.308;2022-12-10T12:06:22;29.30;;;22.23;;
15858;SDS011;8029;52.202;7.308;2022-12-10T12:14:07;35.47;;;25.67;;
15858;SDS011;8029;52.202;7.308;2022-12-10T12:16:35;35.60;;;24.73;;
15858;SDS011;8029;52.202;7.308;2022-12-10T12:19:05;36.83;;;25.67;;
15858;SDS011;8029;52.202;7.308;2022-12-10T12:21:34;32.87;;;23.47;;
15858;SDS011;8029;52.202;7.308;2022-12-10T12:26:46;55.37;;;26.00;;
15858;SDS011;8029;52.202;7.308;2022-12-10T12:32:07;34.33;;;24.23;;
15858;SDS011;8029;52.202;7.308;2022-12-10T12:37:16;35.80;;;21.90;;
15858;SDS011;8029;52.202;7.308;2022-12-10T12:39:50;38.00;;;23.27;;
15858;SDS011;8029;52.202;7.308;2022-12-10T12:49:45;38.60;;;22.67;;
15858;SDS011;8029;52.202;7.308;2022-12-10T12:55:00;41.30;;;24.63;;
15858;SDS011;8029;52.202;7.308;2022-12-10T12:59:58;32.97;;;22.87;;
15858;SDS011;8029;52.202;7.308;2022-12-10T13:02:51;38.37;;;26.30;;
15858;SDS011;8029;52.202;7.308;2022-12-10T13:05:30;30.17;;;23.57;;
15858;SDS011;8029;52.202;7.308;2022-12-10T13:13:22;29.47;;;23.10;;
15858;SDS011;8029;52.202;7.308;2022-12-10T13:15:49;43.23;;;25.10;;
15858;SDS011;8029;52.202;7.308;2022-12-10T13:23:29;42.87;;;27.80;;
15858;SDS011;8029;52.202;7.308;2022-12-10T13:25:57;37.93;;;26.10;;
15858;SDS011;8029;52.202;7.308;2022-12-10T13:34:21;36.07;;;24.03;;
15858;SDS011;8029;52.202;7.308;2022-12-10T13:37:14;41.40;;;23.47;;
15858;SDS011;8029;52.202;7.308;2022-12-10T13:42:26;34.83;;;20.37;;
15858;SDS011;8029;52.202;7.308;2022-12-10T13:44:48;30.50;;;21.97;;
15858;SDS011;8029;52.202;7.308;2022-12-10T13:50:01;35.20;;;21.70;;
15858;SDS011;8029;52.202;7.308;2022-12-10T13:52:51;55.33;;;26.17;;
15858;SDS011;8029;52.202;7.308;2022-12-10T14:00:20;40.23;;;25.10;;
15858;SDS011;8029;52.202;7.308;2022-12-10T14:03:37;33.00;;;20.80;;
15858;SDS011;8029;52.202;7.308;2022-12-10T14:08:04;39.23;;;23.37;;
15858;SDS011;8029;52.202;7.308;2022-12-10T14:10:32;38.03;;;23.93;;
15858;SDS011;8029;52.202;7.308;2022-12-10T14:12:59;27.20;;;20.97;;
15858;SDS011;8029;52.202;7.308;2022-12-10T14:15:25;32.87;;;22.60;;
15858;SDS011;8029;52.202;7.308;2022-12-10T14:20:48;29.73;;;21.13;;
15858;SDS011;8029;52.202;7.308;2022-12-10T14:26:55;34.70;;;22.93;;
15858;SDS011;8029;52.202;7.308;2022-12-10T14:28:50;46.53;;;24.23;;
15858;SDS011;8029;52.202;7.308;2022-12-10T14:31:21;48.17;;;22.17;;
15858;SDS011;8029;52.202;7.308;2022-12-10T14:33:49;34.33;;;23.33;;
15858;SDS011;8029;52.202;7.308;2022-12-10T14:36:30;32.20;;;22.13;;
15858;SDS011;8029;52.202;7.308;2022-12-10T14:38:56;38.87;;;23.63;;
15858;SDS011;8029;52.202;7.308;2022-12-10T14:41:23;35.03;;;23.43;;
15858;SDS011;8029;52.202;7.308;2022-12-10T14:43:49;36.07;;;22.23;;
15858;SDS011;8029;52.202;7.308;2022-12-10T14:46:20;30.57;;;21.20;;
15858;SDS011;8029;52.202;7.308;2022-12-10T14:48:49;53.07;;;22.33;;
15858;SDS011;8029;52.202;7.308;2022-12-10T14:51:16;40.17;;;26.50;;
15858;SDS011;8029;52.202;7.308;2022-12-10T14:53:43;38.07;;;26.27;;
15858;SDS011;8029;52.202;7.308;2022-12-10T14:56:11;46.70;;;23.13;;
15858;SDS011;8029;52.202;7.308;2022-12-10T14:58:45;30.00;;;21.83;;
15858;SDS011;8029;52.202;7.308;2022-12-10T15:01:13;35.23;;;24.37;;
15858;SDS011;8029;52.202;7.308;2022-12-10T15:03:41;31.93;;;22.67;;
15858;SDS011;8029;52.202;7.308;2022-12-10T15:06:12;34.63;;;22.63;;
15858;SDS011;8029;52.202;7.308;2022-12-10T15:08:41;45.83;;;25.73;;
15858;SDS011;8029;52.202;7.308;2022-12-10T15:11:10;42.67;;;25.37;;
15858;SDS011;8029;52.202;7.308;2022-12-10T15:13:40;33.83;;;23.40;;
15858;SDS011;8029;52.202;7.308;2022-12-10T15:16:17;35.20;;;22.53;;
15858;SDS011;8029;52.202;7.308;2022-12-10T15:18:43;29.90;;;22.47;;
15858;SDS011;8029;52.202;7.308;2022-12-10T15:23:38;35.20;;;23.90;;
15858;SDS011;8029;52.202;7.308;2022-12-10T15:26:19;34.13;;;25.63;;
15858;SDS011;8029;52.202;7.308;2022-12-10T15:28:46;46.27;;;24.53;;
15858;SDS011;8029;52.202;7.308;2022-12-10T15:33:48;48.50;;;28.00;;
15858;SDS011;8029;52.202;7.308;2022-12-10T15:38:45;37.23;;;23.70;;
15858;SDS011;8029;52.202;7.308;2022-12-10T15:41:31;33.33;;;23.67;;
15858;SDS011;8029;52.202;7.308;2022-12-10T15:44:02;27.50;;;20.53;;
15858;SDS011;8029;52.202;7.308;2022-12-10T15:46:29;32.47;;;21.53;;
15858;SDS011;8029;52.202;7.308;2022-12-10T15:48:55;42.03;;;23.60;;
15858;SDS011;8029;52.202;7.308;2022-12-10T15:51:21;37.90;;;23.87;;
15858;SDS011;8029;52.202;7.308;2022-12-10T15:53:47;52.63;;;25.97;;
15858;SDS011;8029;52.202;7.308;2022-12-10T15:56:13;31.03;;;21.33;;
15858;SDS011;8029;52.202;7.308;2022-12-10T15:58:39;38.00;;;24.87;;
15858;SDS011;8029;52.202;7.308;2022-12-10T16:01:05;43.10;;;25.77;;
15858;SDS011;8029;52.202;7.308;2022-12-10T16:03:32;40.63;;;25.90;;
15858;SDS011;8029;52.202;7.308;2022-12-10T16:05:58;38.10;;;23.73;;
15858;SDS011;8029;52.202;7.308;2022-12-10T16:08:28;40.17;;;23.27;;
15858;SDS011;8029;52.202;7.308;2022-12-10T16:10:56;43.93;;;24.90;;
15858;SDS011;8029;52.202;7.308;2022-12-10T16:13:24;34.00;;;22.67;;
15858;SDS011;8029;52.202;7.308;2022-12-10T16:15:54;52.33;;;25.53;;
15858;SDS011;8029;52.202;7.308;2022-12-10T16:18:22;42.37;;;24.00;;
15858;SDS011;8029;52.202;7.308;2022-12-10T16:20:48;46.57;;;27.17;;
15858;SDS011;8029;52.202;7.308;2022-12-10T16:23:14;61.23;;;22.83;;
15858;SDS011;8029;52.202;7.308;2022-12-10T16:25:40;36.97;;;22.90;;
15858;SDS011;8029;52.202;7.308;2022-12-10T16:28:11;46.63;;;25.83;;
15858;SDS011;8029;52.202;7.308;2022-12-10T16:30:39;35.80;;;22.17;;
15858;SDS011;8029;52.202;7.308;2022-12-10T16:33:06;39.37;;;23.50;;
15858;SDS011;8029;52.202;7.308;2022-12-10T16:35:32;48.93;;;23.70;;
15858;SDS011;8029;52.202;7.308;2022-12-10T16:37:58;46.00;;;23.43;;
15858;SDS011;8029;52.202;7.308;2022-12-10T16:40:25;33.93;;;22.40;;
15858;SDS011;8029;52.202;7.308;2022-12-10T16:42:52;30.23;;;20.97;;
15858;SDS011;8029;52.202;7.308;2022-12-10T16:45:20;33.07;;;20.20;;
15858;SDS011;8029;52.202;7.308;2022-12-10T16:47:47;39.53;;;22.07;;
15858;SDS011;8029;52.202;7.308;2022-12-10T16:50:13;32.07;;;21.97;;
15858;SDS011;8029;52.202;7.308;2022-12-10T16:52:40;36.20;;;23.57;;